DNIB

Details ICAO DNIB (IBA)
Name IBADAN
Region Nigeria
Timezone Africa/Lagos (UTC+1.0)
Plans Departing 6
Arriving 8
Stats Elevation 725 ft / 221 m (AMSL)
Location 7.362421° 3.978342°
Runways 1
Magnetic Variation 1.899° W
Sunrise 2017-11-20 05:38:14 UTC / 2017-11-20 06:38:14 Local
Sunset 2017-11-20 17:24:09 UTC / 2017-11-20 18:24:09 Local
Advertisement - Login to hide

Runways

ID Width Length Bearing (true) Bearing (mag) Surface Threshold Offset Overrun Length
05 147 ft / 45 m 7,898 ft / 2,407 m 40.00° 41.90° Asphalt 0 ft / 0 m 209 ft / 64 m
23 147 ft / 45 m 7,898 ft / 2,407 m 220.00° 221.90° Asphalt 0 ft / 0 m 225 ft / 69 m

Map

Weather


0- 5 10 15 20 25 30 35+ Temperature / ° C

Clouds and Precipitation
Forecast for 2017-11-20 18:00 UTC. Updated 2 hours ago

Ground ~20,000 ft ~40,000 ft Winds

METAR

Not found

TAF

TAF DNIB 200350Z 2006/2112 VRB02KT 8000 SCT010 TEMPO 2006/2008 5000 BR BECMG 2008/2010 15010KT BKN013 BECMG 2012/2014 SCT013 TEMPO 2014/2018 TS SCT013 FEW020CB BECMG 2019/2021 22005KT FEW010

Frequencies

Tower 122.60 MHz TWR
Warning: Do not use this data for real-world aviation or navigation. No guarantee of current accuracy is given.